Time;durP1;ratioP1;P1;durP2;ratioP2;P2;SDS_P1;SDS_P2;PMS_P1;PMS_P2;Temp;Humidity;BMP_temperature;BMP_pressure;BME280_temperature;BME280_humidity;BME280_pressure;Samples;Min_cycle;Max_cycle;Signal;HPM_P1;HPM_P2
2022/12/01 00:01:35;;;;;;;9.10;8.60;;;22.70;60.20;;;;;;5031123;28;20543;-53
2022/12/01 00:04:02;;;;;;;9.93;9.23;;;22.70;60.70;;;;;;5031409;28;20451;-58
2022/12/01 00:06:28;;;;;;;10.80;10.00;;;22.70;59.40;;;;;;5031362;28;20452;-55
2022/12/01 00:11:41;;;;;;;10.60;9.90;;;22.50;57.20;;;;;;5031081;28;20444;-53
2022/12/01 00:14:08;;;;;;;11.00;10.30;;;22.40;57.30;;;;;;5031275;28;20488;-56
2022/12/01 00:16:37;;;;;;;11.10;10.30;;;22.30;57.90;;;;;;5031276;28;20441;-55
2022/12/01 00:19:04;;;;;;;10.07;9.30;;;22.20;58.40;;;;;;5031071;28;20565;-58
2022/12/01 00:21:30;;;;;;;10.10;9.40;;;22.10;58.70;;;;;;5031052;28;20812;-57
2022/12/01 00:23:59;;;;;;;9.77;9.17;;;22.10;59.00;;;;;;5031163;28;20437;-56
2022/12/01 00:26:26;;;;;;;9.70;9.10;;;22.00;59.10;;;;;;5031174;28;20447;-54
2022/12/01 00:28:55;;;;;;;10.70;9.70;;;22.00;59.40;;;;;;5031016;28;20461;-56
2022/12/01 00:31:22;;;;;;;10.80;10.10;;;21.90;59.50;;;;;;5030895;28;20480;-53
2022/12/01 00:33:49;;;;;;;11.90;10.90;;;21.80;59.70;;;;;;5031061;28;20480;-56
2022/12/01 00:36:17;;;;;;;10.57;9.67;;;21.80;60.00;;;;;;5031335;28;20828;-55
2022/12/01 00:38:43;;;;;;;10.63;9.83;;;21.80;60.90;;;;;;5034453;28;20512;-55
2022/12/01 00:41:12;;;;;;;9.77;9.10;;;21.70;61.10;;;;;;5034612;28;20451;-52
2022/12/01 00:43:39;;;;;;;11.40;10.67;;;21.70;60.60;;;;;;5034878;28;20960;-55
2022/12/01 00:46:06;;;;;;;10.73;9.90;;;21.70;60.70;;;;;;5034643;28;20820;-53
2022/12/01 00:48:33;;;;;;;10.20;9.60;;;21.60;60.80;;;;;;5034388;28;20905;-56
2022/12/01 00:51:00;;;;;;;10.20;9.50;;;21.60;60.90;;;;;;5034356;28;20444;-55
2022/12/01 00:53:27;;;;;;;10.90;10.20;;;21.60;61.10;;;;;;5034444;28;20476;-54
2022/12/01 00:55:53;;;;;;;10.50;9.80;;;21.50;61.10;;;;;;5034448;28;20475;-57
2022/12/01 00:58:22;;;;;;;10.50;9.70;;;21.50;61.30;;;;;;5034102;28;20548;-53
2022/12/01 01:00:56;;;;;;;9.93;9.33;;;21.50;61.30;;;;;;5033931;28;20541;-58
2022/12/01 01:03:23;;;;;;;9.60;8.90;;;21.50;62.20;;;;;;5034408;28;20458;-53
2022/12/01 01:05:49;;;;;;;10.13;9.43;;;21.50;61.60;;;;;;5034381;28;20965;-53
2022/12/01 01:08:16;;;;;;;9.97;9.27;;;21.50;61.60;;;;;;5033930;28;20551;-54
2022/12/01 01:10:46;;;;;;;11.03;10.20;;;21.50;62.60;;;;;;5033992;28;20452;-53
2022/12/01 01:13:14;;;;;;;9.80;9.20;;;21.40;61.80;;;;;;5034129;28;20483;-53
2022/12/01 01:15:42;;;;;;;10.20;9.50;;;21.40;62.00;;;;;;5034252;28;20445;-53
2022/12/01 01:18:11;;;;;;;10.43;9.77;;;21.40;62.20;;;;;;5033979;28;20464;-55
2022/12/01 01:20:38;;;;;;;10.30;9.40;;;21.30;62.20;;;;;;5033819;28;20956;-57
2022/12/01 01:23:04;;;;;;;11.13;10.13;;;21.30;62.80;;;;;;5033991;28;20452;-53
2022/12/01 01:25:33;;;;;;;10.00;9.40;;;21.30;62.40;;;;;;5034231;28;20527;-54
2022/12/01 01:27:59;;;;;;;10.83;10.13;;;21.30;62.40;;;;;;5033944;28;20897;-56
2022/12/01 01:30:26;;;;;;;9.80;9.13;;;21.30;63.20;;;;;;5033659;28;20955;-56
2022/12/01 01:32:55;;;;;;;9.07;8.47;;;21.30;62.40;;;;;;5033789;28;20480;-53
2022/12/01 01:35:22;;;;;;;10.00;9.30;;;21.30;62.40;;;;;;5033751;28;20487;-54
2022/12/01 01:37:49;;;;;;;10.10;9.40;;;21.30;62.50;;;;;;5034159;28;20473;-55
2022/12/01 01:40:17;;;;;;;9.30;8.70;;;21.30;62.60;;;;;;5033286;28;20472;-59
2022/12/01 01:42:43;;;;;;;10.20;9.60;;;21.30;62.70;;;;;;5033793;28;20441;-52
2022/12/01 01:45:21;;;;;;;9.80;9.20;;;21.30;62.80;;;;;;5033657;28;20443;-56
2022/12/01 01:47:49;;;;;;;9.27;8.47;;;21.30;62.80;;;;;;5033084;28;20465;-54
2022/12/01 01:50:21;;;;;;;10.13;9.47;;;21.20;62.70;;;;;;5032862;28;20445;-52
2022/12/01 01:52:53;;;;;;;9.10;8.60;;;21.20;63.60;;;;;;5033501;28;20792;-52
2022/12/01 01:55:20;;;;;;;9.97;9.37;;;21.20;62.90;;;;;;5033293;28;21029;-53
2022/12/01 01:57:47;;;;;;;9.67;8.80;;;21.20;62.90;;;;;;5032883;28;21007;-58
2022/12/01 02:00:16;;;;;;;9.60;8.83;;;21.20;63.00;;;;;;5032890;28;20477;-54
2022/12/01 02:02:45;;;;;;;10.13;9.53;;;21.20;63.10;;;;;;5033253;28;20537;-53
2022/12/01 02:05:16;;;;;;;10.13;9.43;;;21.20;63.20;;;;;;5033170;28;20498;-54
2022/12/01 02:07:45;;;;;;;10.43;9.80;;;21.20;63.30;;;;;;5032821;28;20500;-56
2022/12/01 02:10:21;;;;;;;9.50;8.80;;;21.20;63.30;;;;;;5032931;28;20953;-53
2022/12/01 02:13:00;;;;;;;9.80;9.20;;;21.20;63.30;;;;;;5033055;28;20449;-52
2022/12/01 02:15:33;;;;;;;9.73;9.13;;;21.20;63.30;;;;;;5032966;28;20563;-54
2022/12/01 02:18:13;;;;;;;10.33;9.73;;;21.20;63.30;;;;;;5032754;28;20560;-52
2022/12/01 02:21:10;;;;;;;9.27;8.63;;;21.20;63.30;;;;;;5032609;28;20503;-53
2022/12/01 02:24:14;;;;;;;9.10;8.50;;;21.20;63.30;;;;;;5032840;28;20473;-53
2022/12/01 02:26:48;;;;;;;9.10;8.60;;;21.10;63.20;;;;;;5032537;28;20447;-55
2022/12/01 02:29:52;;;;;;;9.17;8.67;;;21.10;63.20;;;;;;5032524;28;20614;-57
2022/12/01 02:32:30;;;;;;;9.03;8.53;;;21.10;63.30;;;;;;5022567;28;20491;-52
2022/12/01 02:35:04;;;;;;;9.40;8.77;;;21.10;63.30;;;;;;5032413;28;20495;-53
2022/12/01 02:37:36;;;;;;;10.20;9.50;;;21.10;63.40;;;;;;5032428;28;21000;-53
2022/12/01 02:40:11;;;;;;;9.87;9.27;;;21.10;63.40;;;;;;5032407;28;20825;-52
2022/12/01 02:42:52;;;;;;;9.80;9.10;;;21.10;63.50;;;;;;5032547;28;20476;-52
2022/12/01 02:45:34;;;;;;;9.83;9.13;;;21.10;64.30;;;;;;5032575;28;20448;-52
2022/12/01 02:48:07;;;;;;;9.57;8.80;;;21.10;63.60;;;;;;5032332;28;20469;-52
2022/12/01 02:50:36;;;;;;;10.23;9.63;;;21.00;63.50;;;;;;5032114;28;20488;-55
2022/12/01 02:53:06;;;;;;;9.90;9.20;;;21.10;63.70;;;;;;5032367;28;20844;-52
2022/12/01 02:55:33;;;;;;;10.13;9.30;;;21.10;63.60;;;;;;5031928;28;20563;-55
2022/12/01 02:57:59;;;;;;;10.30;9.57;;;21.10;63.60;;;;;;5032026;28;20480;-52
2022/12/01 03:00:26;;;;;;;9.90;9.20;;;21.10;63.60;;;;;;5031649;28;20533;-56
2022/12/01 03:03:13;;;;;;;10.57;9.93;;;21.10;63.60;;;;;;5032373;28;20452;-51
2022/12/01 03:05:48;;;;;;;9.17;8.57;;;21.10;63.60;;;;;;5031893;28;20445;-57
2022/12/01 03:08:22;;;;;;;10.40;9.70;;;21.10;63.50;;;;;;5032056;28;20519;-55
2022/12/01 03:10:53;;;;;;;9.10;8.50;;;21.10;63.50;;;;;;5031842;28;20480;-56
2022/12/01 03:13:32;;;;;;;9.90;9.27;;;21.10;63.50;;;;;;5032100;28;20441;-53
2022/12/01 03:16:07;;;;;;;10.67;9.87;;;21.10;63.50;;;;;;5031635;28;21070;-54
2022/12/01 03:18:38;;;;;;;10.73;9.93;;;21.10;63.50;;;;;;5031883;28;20544;-54
2022/12/01 03:21:10;;;;;;;10.37;9.77;;;21.00;63.50;;;;;;5031803;28;20468;-51
2022/12/01 03:23:41;;;;;;;8.90;8.30;;;21.10;63.60;;;;;;5031861;28;20487;-52
2022/12/01 03:26:15;;;;;;;9.60;8.93;;;21.10;63.70;;;;;;5031486;28;20480;-52
2022/12/01 03:28:47;;;;;;;10.93;10.03;;;21.00;63.60;;;;;;5031792;28;20964;-51
2022/12/01 03:31:18;;;;;;;10.03;9.40;;;21.00;63.60;;;;;;5031755;28;20451;-52
2022/12/01 03:33:50;;;;;;;10.83;10.07;;;21.00;63.60;;;;;;5031441;28;20457;-55
2022/12/01 03:36:21;;;;;;;10.07;9.37;;;21.00;64.50;;;;;;5031711;28;20445;-54
2022/12/01 03:38:52;;;;;;;10.50;9.70;;;21.00;63.70;;;;;;5031378;28;20573;-53
2022/12/01 03:41:24;;;;;;;10.63;9.70;;;21.00;63.70;;;;;;5031472;28;20440;-53
2022/12/01 03:43:55;;;;;;;9.40;8.83;;;21.00;63.60;;;;;;5031515;28;20452;-56
2022/12/01 03:46:29;;;;;;;11.07;10.27;;;21.00;63.60;;;;;;5031532;28;20452;-51
2022/12/01 03:48:57;;;;;;;11.53;10.83;;;21.10;63.70;;;;;;5031343;28;20887;-51
2022/12/01 03:51:31;;;;;;;9.17;8.63;;;21.00;63.50;;;;;;5031494;28;20540;-51
2022/12/01 03:54:03;;;;;;;9.53;8.93;;;21.10;63.60;;;;;;5031245;28;20975;-53
2022/12/01 03:56:36;;;;;;;11.13;10.33;;;21.00;63.50;;;;;;5011767;28;20450;-51
2022/12/01 03:59:06;;;;;;;10.80;10.00;;;21.10;63.60;;;;;;5011502;28;20557;-53
2022/12/01 04:01:33;;;;;;;10.77;10.10;;;21.10;63.60;;;;;;5011785;28;20446;-52
2022/12/01 04:04:06;;;;;;;11.13;10.33;;;21.00;63.50;;;;;;5015321;28;20471;-51
2022/12/01 04:06:34;;;;;;;10.20;9.50;;;21.10;63.50;;;;;;5031415;28;20459;-52
2022/12/01 04:09:00;;;;;;;9.53;8.83;;;21.10;63.50;;;;;;5031031;28;20548;-51
2022/12/01 04:14:12;;;;;;;10.20;9.60;;;21.20;63.40;;;;;;5035042;28;20436;-53
2022/12/01 04:16:38;;;;;;;11.40;10.43;;;21.20;63.50;;;;;;5035212;28;20445;-52
2022/12/01 04:19:07;;;;;;;9.40;8.80;;;21.20;63.90;;;;;;5034935;28;20460;-54
2022/12/01 04:21:33;;;;;;;11.00;10.10;;;21.20;64.40;;;;;;5035095;28;20564;-52
2022/12/01 04:24:00;;;;;;;11.77;10.90;;;21.20;64.70;;;;;;5034905;28;21019;-53
2022/12/01 04:26:27;;;;;;;11.10;10.37;;;21.20;64.70;;;;;;5035109;28;20447;-51
2022/12/01 04:28:54;;;;;;;11.27;10.47;;;21.20;64.80;;;;;;5034805;28;20496;-54
2022/12/01 04:31:21;;;;;;;9.47;8.90;;;21.20;64.80;;;;;;5034925;28;20445;-54
2022/12/01 04:33:48;;;;;;;10.57;9.67;;;21.30;64.80;;;;;;5034845;28;20445;-52
2022/12/01 04:36:16;;;;;;;10.90;10.20;;;21.30;65.50;;;;;;5035007;28;20486;-51
2022/12/01 04:38:43;;;;;;;11.90;10.90;;;21.30;64.80;;;;;;5034888;28;20523;-55
2022/12/01 04:41:10;;;;;;;9.97;9.20;;;21.30;64.70;;;;;;5034715;28;20855;-51
2022/12/01 04:43:38;;;;;;;11.50;10.50;;;21.30;64.70;;;;;;5034577;28;20447;-55
2022/12/01 04:46:05;;;;;;;10.23;9.57;;;21.30;64.70;;;;;;5034676;28;20469;-52
2022/12/01 04:48:34;;;;;;;10.70;9.90;;;21.30;64.70;;;;;;5034743;28;20503;-51
2022/12/01 04:51:00;;;;;;;10.83;10.00;;;21.30;64.70;;;;;;5034206;28;20437;-51
2022/12/01 04:53:29;;;;;;;11.93;11.17;;;21.30;64.70;;;;;;5034610;28;20440;-55
2022/12/01 04:55:55;;;;;;;10.77;9.70;;;21.30;64.80;;;;;;5034532;28;20845;-54
2022/12/01 04:58:22;;;;;;;9.83;9.20;;;21.30;64.70;;;;;;5034368;28;20461;-51
2022/12/01 05:00:49;;;;;;;10.30;9.60;;;21.30;64.70;;;;;;5034085;28;20473;-51
2022/12/01 05:03:16;;;;;;;10.67;9.97;;;21.40;64.60;;;;;;5034359;28;20524;-53
2022/12/01 05:05:43;;;;;;;11.30;10.50;;;21.40;64.50;;;;;;5034336;28;20532;-52
2022/12/01 05:08:10;;;;;;;10.87;10.13;;;21.40;64.40;;;;;;5034258;28;20547;-54
2022/12/01 05:10:38;;;;;;;11.00;10.30;;;21.40;64.40;;;;;;5033784;28;20488;-53
2022/12/01 05:13:06;;;;;;;9.83;9.23;;;21.40;64.30;;;;;;5034110;28;20488;-54
2022/12/01 05:15:33;;;;;;;10.13;9.40;;;21.40;64.20;;;;;;5034036;28;20991;-54
2022/12/01 05:17:59;;;;;;;11.53;10.73;;;21.40;64.20;;;;;;5034289;28;20536;-51
2022/12/01 05:23:12;;;;;;;12.00;11.00;;;21.50;64.50;;;;;;5032802;28;20441;-51
2022/12/01 05:25:41;;;;;;;12.90;11.60;;;21.50;64.70;;;;;;5034257;28;20528;-54
2022/12/01 05:28:08;;;;;;;18.37;13.07;;;21.60;65.10;;;;;;5033946;28;20473;-52
2022/12/01 05:30:34;;;;;;;16.40;13.70;;;21.60;65.60;;;;;;5033420;28;20455;-53
2022/12/01 05:33:02;;;;;;;15.03;13.03;;;21.60;66.60;;;;;;5033817;28;20445;-51
2022/12/01 05:35:29;;;;;;;17.47;15.50;;;21.60;67.50;;;;;;5033537;28;20477;-51
2022/12/01 05:37:55;;;;;;;20.13;14.13;;;21.60;69.80;;;;;;5033559;28;20912;-50
2022/12/01 05:40:22;;;;;;;21.53;14.80;;;21.60;72.60;;;;;;5032705;28;20445;-49
2022/12/01 05:42:50;;;;;;;14.50;11.80;;;21.80;73.60;;;;;;5033173;28;20816;-49
2022/12/01 05:45:17;;;;;;;15.10;12.50;;;21.80;73.30;;;;;;5033566;28;20441;-49
2022/12/01 05:47:44;;;;;;;14.10;12.67;;;21.90;72.80;;;;;;5033513;28;20548;-49
2022/12/01 05:50:11;;;;;;;18.23;13.00;;;22.00;72.10;;;;;;5033252;28;20441;-49
2022/12/01 05:52:38;;;;;;;13.77;12.20;;;22.00;71.30;;;;;;5033402;28;20532;-49
2022/12/01 05:55:06;;;;;;;14.93;12.70;;;22.00;70.60;;;;;;5033313;28;20485;-52
2022/12/01 05:57:33;;;;;;;12.70;11.53;;;22.10;70.20;;;;;;5033314;28;20818;-51
2022/12/01 06:00:02;;;;;;;13.87;12.40;;;22.10;69.70;;;;;;5033130;28;20880;-49
2022/12/01 06:02:29;;;;;;;13.23;11.90;;;22.10;69.30;;;;;;5033252;28;20473;-49
2022/12/01 06:04:55;;;;;;;14.77;13.13;;;22.10;68.90;;;;;;5033131;28;20477;-49
2022/12/01 06:07:24;;;;;;;13.03;11.93;;;22.10;68.60;;;;;;5033081;28;20552;-49
2022/12/01 06:09:52;;;;;;;13.10;12.00;;;22.10;68.40;;;;;;5032986;28;20544;-53
2022/12/01 06:12:19;;;;;;;13.53;10.80;;;22.10;68.20;;;;;;5033071;28;20487;-49
2022/12/01 06:14:46;;;;;;;14.10;12.67;;;22.10;68.00;;;;;;5032877;28;20476;-50
2022/12/01 06:17:14;;;;;;;13.47;10.40;;;22.10;67.80;;;;;;5033034;28;20464;-48
2022/12/01 06:19:42;;;;;;;14.00;12.70;;;22.10;67.60;;;;;;5032851;28;20447;-51
2022/12/01 06:22:09;;;;;;;12.47;11.40;;;22.10;67.40;;;;;;5033120;28;20500;-49
2022/12/01 06:24:35;;;;;;;12.73;10.90;;;22.10;67.30;;;;;;5032959;28;20531;-53
2022/12/01 06:27:02;;;;;;;15.97;12.23;;;22.10;67.10;;;;;;5032696;28;20444;-49
2022/12/01 06:29:29;;;;;;;13.57;12.13;;;22.00;66.90;;;;;;5032646;28;20802;-49
2022/12/01 06:31:56;;;;;;;12.70;11.37;;;22.00;66.80;;;;;;5032746;28;20443;-52
2022/12/01 06:34:24;;;;;;;18.50;12.20;;;22.00;67.50;;;;;;5032249;28;20837;-49
2022/12/01 06:36:51;;;;;;;13.07;11.93;;;22.00;66.60;;;;;;5032472;28;20492;-50
2022/12/01 06:39:18;;;;;;;11.40;10.53;;;22.00;66.50;;;;;;5032444;28;20440;-49
2022/12/01 06:41:45;;;;;;;14.97;12.17;;;22.00;66.40;;;;;;5032470;28;20441;-49
2022/12/01 06:44:11;;;;;;;11.73;10.73;;;22.00;66.40;;;;;;5032489;28;20481;-49
2022/12/01 06:46:38;;;;;;;12.90;11.70;;;21.90;66.10;;;;;;5032397;28;20442;-51
2022/12/01 06:49:05;;;;;;;13.00;11.80;;;21.90;66.10;;;;;;5032181;28;20555;-49
2022/12/01 06:51:33;;;;;;;13.97;11.00;;;21.90;66.00;;;;;;5032293;28;20476;-49
2022/12/01 06:54:00;;;;;;;14.10;10.87;;;21.90;66.00;;;;;;5032349;28;20441;-49
2022/12/01 06:56:27;;;;;;;12.67;11.50;;;21.90;65.90;;;;;;5032192;28;20821;-49
2022/12/01 06:58:54;;;;;;;11.93;10.70;;;21.90;65.80;;;;;;5031973;28;20472;-49
2022/12/01 07:01:21;;;;;;;12.33;11.33;;;21.90;65.70;;;;;;5032114;28;20447;-53
2022/12/01 07:03:48;;;;;;;13.10;11.67;;;21.80;65.60;;;;;;5032204;28;20531;-48
2022/12/01 07:06:15;;;;;;;11.37;10.47;;;21.80;65.50;;;;;;5032032;28;20450;-49
2022/12/01 07:08:44;;;;;;;12.73;10.50;;;21.80;65.50;;;;;;5032036;28;20467;-50
2022/12/01 07:11:13;;;;;;;12.20;11.03;;;21.80;65.40;;;;;;5031949;28;20445;-51
2022/12/01 07:13:41;;;;;;;11.60;10.40;;;21.80;65.40;;;;;;5032092;28;20472;-49
2022/12/01 07:16:09;;;;;;;12.53;11.40;;;21.80;65.40;;;;;;5031760;28;21030;-49
2022/12/01 07:18:37;;;;;;;11.87;10.73;;;21.70;65.20;;;;;;5031899;28;20461;-50
2022/12/01 07:21:07;;;;;;;12.43;11.20;;;21.70;65.20;;;;;;5031653;28;20448;-49
2022/12/01 07:23:35;;;;;;;11.30;10.47;;;21.70;65.20;;;;;;5031867;28;20509;-49
2022/12/01 07:26:05;;;;;;;11.50;10.60;;;21.70;65.20;;;;;;5031881;28;20445;-50
2022/12/01 07:28:31;;;;;;;13.17;11.83;;;21.70;65.20;;;;;;5031640;28;20453;-50
2022/12/01 07:31:03;;;;;;;11.37;10.27;;;21.60;65.10;;;;;;5031557;28;20558;-49
2022/12/01 07:33:31;;;;;;;12.87;10.97;;;21.60;65.10;;;;;;5031680;28;20524;-50
2022/12/01 07:35:58;;;;;;;12.37;11.23;;;21.60;65.20;;;;;;5031608;28;20567;-51
2022/12/01 07:38:25;;;;;;;12.07;11.07;;;21.60;65.20;;;;;;5031884;28;20504;-53
2022/12/01 07:40:52;;;;;;;11.60;10.80;;;21.60;65.20;;;;;;5031460;28;20533;-52
2022/12/01 07:43:20;;;;;;;10.87;10.17;;;21.60;65.40;;;;;;5031565;28;20598;-50
2022/12/01 07:45:48;;;;;;;11.30;10.40;;;21.50;65.00;;;;;;5030976;28;20448;-53
2022/12/01 07:48:14;;;;;;;10.63;9.83;;;21.50;65.00;;;;;;5031193;28;20479;-53
2022/12/01 07:50:41;;;;;;;11.13;10.43;;;21.50;65.00;;;;;;5031331;28;20469;-52
2022/12/01 07:53:08;;;;;;;11.83;10.90;;;21.50;65.00;;;;;;5031521;28;20445;-50
2022/12/01 07:55:35;;;;;;;10.53;9.63;;;21.50;65.40;;;;;;5031466;28;20481;-50
2022/12/01 07:58:02;;;;;;;11.43;10.43;;;21.50;65.00;;;;;;5031355;28;20465;-52
2022/12/01 08:00:30;;;;;;;11.10;10.30;;;21.40;64.80;;;;;;5031304;28;20445;-52
2022/12/01 08:02:57;;;;;;;11.73;10.63;;;21.40;64.80;;;;;;5031491;28;20451;-52
2022/12/01 08:05:23;;;;;;;10.13;9.43;;;21.40;64.70;;;;;;5031571;28;20895;-52
2022/12/01 08:07:53;;;;;;;11.33;10.53;;;21.40;64.70;;;;;;5031322;28;20465;-51
2022/12/01 08:10:20;;;;;;;11.00;10.20;;;21.40;65.50;;;;;;5031149;28;20447;-54
2022/12/01 08:12:47;;;;;;;10.30;9.70;;;21.40;64.70;;;;;;5031210;28;20441;-52
2022/12/01 08:15:13;;;;;;;12.03;11.13;;;21.40;64.70;;;;;;5031161;28;20475;-52
2022/12/01 08:17:42;;;;;;;13.03;12.03;;;21.30;64.60;;;;;;5031289;28;20489;-53
2022/12/01 08:20:11;;;;;;;12.10;11.00;;;21.30;64.50;;;;;;5031064;28;20887;-53
2022/12/01 08:22:38;;;;;;;12.83;12.03;;;21.30;64.50;;;;;;5031169;28;20519;-54
2022/12/01 08:25:05;;;;;;;11.53;10.73;;;21.30;64.50;;;;;;5031340;28;20445;-53
2022/12/01 08:27:33;;;;;;;11.50;10.73;;;21.40;64.60;;;;;;5031160;28;20542;-52
2022/12/01 08:30:00;;;;;;;11.40;10.60;;;21.30;64.80;;;;;;5031050;28;20979;-53
2022/12/01 08:32:28;;;;;;;10.43;9.73;;;21.30;64.50;;;;;;5031210;28;20531;-52
2022/12/01 08:34:56;;;;;;;11.17;10.33;;;21.40;64.60;;;;;;5031190;28;20449;-52
2022/12/01 08:37:23;;;;;;;10.80;10.10;;;21.40;64.50;;;;;;5030909;28;20491;-52
2022/12/01 08:39:50;;;;;;;12.00;11.17;;;21.30;64.40;;;;;;5031002;28;20528;-51
2022/12/01 08:42:16;;;;;;;11.53;10.63;;;21.30;64.40;;;;;;5030958;28;20535;-52
2022/12/01 08:44:43;;;;;;;12.07;11.10;;;21.30;64.40;;;;;;5031065;28;20548;-51
2022/12/01 08:47:10;;;;;;;11.17;10.30;;;21.30;64.30;;;;;;5030970;28;20448;-54
2022/12/01 08:49:37;;;;;;;11.63;10.77;;;21.30;64.30;;;;;;5030857;28;20459;-53
2022/12/01 08:52:05;;;;;;;11.70;10.60;;;21.30;64.20;;;;;;5031122;28;20928;-51
2022/12/01 08:54:32;;;;;;;10.20;9.50;;;21.30;64.20;;;;;;5030947;28;20445;-51
2022/12/01 08:56:59;;;;;;;10.20;9.60;;;21.30;64.10;;;;;;5030709;28;20531;-53
2022/12/01 08:59:26;;;;;;;11.43;10.53;;;21.30;64.00;;;;;;5034337;28;20448;-52
2022/12/01 09:01:53;;;;;;;11.40;10.50;;;21.30;64.10;;;;;;5034449;28;20449;-52
2022/12/01 09:04:21;;;;;;;10.83;10.20;;;21.30;64.00;;;;;;5034500;28;20456;-53
2022/12/01 09:06:49;;;;;;;10.57;9.77;;;21.30;64.00;;;;;;5034503;28;20963;-50
2022/12/01 09:09:20;;;;;;;10.57;9.87;;;21.30;64.00;;;;;;5034347;28;20447;-51
2022/12/01 09:11:48;;;;;;;11.03;10.23;;;21.30;64.00;;;;;;5034663;28;20465;-57
2022/12/01 09:14:16;;;;;;;10.80;10.10;;;21.30;64.00;;;;;;5034386;28;20937;-56
2022/12/01 09:16:45;;;;;;;10.73;9.93;;;21.20;63.90;;;;;;5034420;28;21021;-57
2022/12/01 09:19:13;;;;;;;10.73;9.83;;;21.20;63.90;;;;;;5034407;28;20552;-56
2022/12/01 09:21:41;;;;;;;11.23;10.33;;;21.20;64.60;;;;;;5034271;28;20449;-57
2022/12/01 09:24:11;;;;;;;10.27;9.53;;;21.20;63.90;;;;;;5034344;28;20492;-57
2022/12/01 09:26:39;;;;;;;10.60;9.70;;;21.20;63.90;;;;;;5034290;28;20812;-53
2022/12/01 09:29:08;;;;;;;11.60;10.70;;;21.20;63.90;;;;;;5033935;28;20511;-52
2022/12/01 09:31:36;;;;;;;12.73;11.53;;;21.20;64.00;;;;;;5033757;28;20523;-52
2022/12/01 09:34:04;;;;;;;12.00;11.00;;;21.20;64.00;;;;;;5033919;28;20441;-53
2022/12/01 09:36:32;;;;;;;11.50;10.70;;;21.10;63.90;;;;;;5033924;28;20480;-53
2022/12/01 09:39:00;;;;;;;9.93;9.23;;;21.10;63.90;;;;;;5033422;28;20480;-53
2022/12/01 09:41:30;;;;;;;11.50;10.60;;;21.20;64.00;;;;;;5033741;28;20994;-55
2022/12/01 09:44:04;;;;;;;12.40;11.40;;;21.10;63.90;;;;;;5033737;28;20470;-51
2022/12/01 09:46:43;;;;;;;10.27;9.47;;;21.10;63.90;;;;;;5033725;28;20452;-53
2022/12/01 09:49:16;;;;;;;10.50;9.80;;;21.10;63.90;;;;;;5033416;28;20468;-52
2022/12/01 09:51:43;;;;;;;11.93;11.10;;;21.10;63.90;;;;;;5033469;28;20459;-51
2022/12/01 09:54:14;;;;;;;11.97;11.00;;;21.10;63.80;;;;;;5033486;28;20484;-51
2022/12/01 09:56:45;;;;;;;12.00;11.20;;;21.10;63.90;;;;;;5033427;28;20483;-52
2022/12/01 09:59:21;;;;;;;11.53;10.80;;;21.00;63.70;;;;;;5033249;28;20468;-51
2022/12/01 10:01:51;;;;;;;11.47;10.47;;;21.00;63.70;;;;;;5033416;28;20804;-50
2022/12/01 10:04:20;;;;;;;10.47;9.77;;;21.00;63.70;;;;;;5033278;28;20535;-51
2022/12/01 10:06:51;;;;;;;11.70;10.90;;;21.00;63.70;;;;;;5033261;28;20806;-52
2022/12/01 10:09:23;;;;;;;11.13;10.23;;;21.00;63.80;;;;;;5032257;28;20445;-52
2022/12/01 10:11:54;;;;;;;10.73;10.00;;;21.00;63.80;;;;;;5033246;28;20461;-53
2022/12/01 10:14:23;;;;;;;10.83;10.10;;;21.00;63.70;;;;;;5033091;28;20445;-53
2022/12/01 10:16:59;;;;;;;10.27;9.67;;;21.00;63.70;;;;;;5033104;28;20943;-52
2022/12/01 10:19:36;;;;;;;10.93;10.23;;;21.00;63.80;;;;;;5032955;28;20532;-52
2022/12/01 10:22:17;;;;;;;10.03;9.27;;;21.00;63.90;;;;;;5033053;28;20532;-51
2022/12/01 10:24:54;;;;;;;11.90;11.03;;;21.00;63.80;;;;;;5032908;28;20532;-50
2022/12/01 10:27:47;;;;;;;11.87;11.00;;;21.10;63.90;;;;;;5032819;28;20881;-50
2022/12/01 10:30:17;;;;;;;9.90;9.30;;;21.10;63.90;;;;;;5032646;28;20977;-51
2022/12/01 10:32:51;;;;;;;10.73;9.90;;;21.10;63.90;;;;;;5032833;28;20457;-52
2022/12/01 10:35:20;;;;;;;10.50;9.90;;;21.10;63.80;;;;;;5032610;28;20544;-51
2022/12/01 10:37:56;;;;;;;10.40;9.50;;;21.10;63.70;;;;;;5032327;28;20992;-50
2022/12/01 10:40:24;;;;;;;10.87;10.10;;;21.10;63.70;;;;;;5032364;28;20995;-52
2022/12/01 10:42:51;;;;;;;11.30;10.50;;;21.10;63.60;;;;;;5032582;28;20877;-53
2022/12/01 10:45:24;;;;;;;10.50;9.70;;;21.10;63.50;;;;;;5032603;28;20800;-50
2022/12/01 10:48:14;;;;;;;9.93;9.30;;;21.20;63.60;;;;;;5032466;28;20536;-51
2022/12/01 10:50:42;;;;;;;11.07;10.23;;;21.10;63.40;;;;;;5032283;28;20972;-51
2022/12/01 10:53:26;;;;;;;10.47;9.70;;;21.10;63.40;;;;;;5032363;28;20499;-50
2022/12/01 10:56:02;;;;;;;10.30;9.50;;;21.10;63.40;;;;;;5032389;28;20445;-51
2022/12/01 10:58:31;;;;;;;11.37;10.57;;;21.10;63.30;;;;;;5032413;28;20835;-51
2022/12/01 11:01:01;;;;;;;9.87;9.27;;;21.10;63.30;;;;;;5032125;28;20531;-53
2022/12/01 11:03:31;;;;;;;10.30;9.47;;;21.10;63.30;;;;;;5032259;28;20445;-49
2022/12/01 11:05:59;;;;;;;10.00;9.30;;;21.10;63.20;;;;;;5032136;28;20536;-50
2022/12/01 11:08:34;;;;;;;11.57;10.83;;;21.10;63.20;;;;;;5031973;28;21002;-51
2022/12/01 11:11:01;;;;;;;11.60;10.80;;;21.10;63.20;;;;;;5031869;28;20468;-50
2022/12/01 11:13:31;;;;;;;10.50;9.77;;;21.10;63.10;;;;;;5031999;28;20524;-51
2022/12/01 11:16:01;;;;;;;9.93;9.30;;;21.10;63.10;;;;;;5031949;28;20437;-52
2022/12/01 11:18:32;;;;;;;11.03;10.30;;;21.10;63.00;;;;;;5031850;28;20500;-50
2022/12/01 11:21:08;;;;;;;9.93;9.33;;;21.10;63.00;;;;;;5031640;28;20450;-52
2022/12/01 11:23:37;;;;;;;10.60;9.80;;;21.00;62.90;;;;;;5031892;28;20535;-54
2022/12/01 11:26:13;;;;;;;10.43;9.73;;;21.10;63.00;;;;;;5031684;28;20473;-50
2022/12/01 11:28:53;;;;;;;11.00;10.20;;;21.00;62.90;;;;;;5031579;28;20551;-50
2022/12/01 11:31:23;;;;;;;11.03;10.33;;;21.00;63.00;;;;;;5031501;28;21007;-53
2022/12/01 11:33:53;;;;;;;11.10;10.40;;;21.00;63.00;;;;;;5031992;28;20471;-51
2022/12/01 11:36:25;;;;;;;11.57;10.57;;;21.00;63.00;;;;;;5031590;28;20995;-50
2022/12/01 11:38:57;;;;;;;10.90;10.10;;;21.00;63.00;;;;;;5031271;28;20844;-52
2022/12/01 11:41:35;;;;;;;10.17;9.57;;;21.00;63.00;;;;;;5031601;28;20459;-51
2022/12/01 11:44:03;;;;;;;10.93;10.13;;;21.00;63.10;;;;;;5031608;28;20441;-52
2022/12/01 11:46:34;;;;;;;10.57;9.97;;;21.00;63.00;;;;;;5031545;28;20505;-50
2022/12/01 11:49:01;;;;;;;11.13;10.33;;;21.00;63.10;;;;;;5031533;28;20467;-52
2022/12/01 11:51:36;;;;;;;11.20;10.40;;;20.90;63.00;;;;;;5031532;28;20443;-52
2022/12/01 11:54:14;;;;;;;11.13;10.33;;;20.90;62.90;;;;;;5031454;28;20487;-49
2022/12/01 11:56:42;;;;;;;11.20;10.40;;;20.90;62.90;;;;;;5031541;28;20879;-55
2022/12/01 11:59:14;;;;;;;11.67;10.87;;;20.90;63.00;;;;;;5031319;28;20473;-51
2022/12/01 12:01:55;;;;;;;11.30;10.50;;;20.90;63.00;;;;;;5031433;28;20867;-51
2022/12/01 12:04:33;;;;;;;11.93;11.20;;;20.90;63.00;;;;;;5031509;28;20602;-51
2022/12/01 12:07:13;;;;;;;10.10;9.40;;;20.90;63.00;;;;;;5031366;28;20515;-51
2022/12/01 12:09:51;;;;;;;10.90;10.20;;;20.90;63.00;;;;;;5031384;28;20524;-52
2022/12/01 12:12:30;;;;;;;11.37;10.57;;;20.90;62.90;;;;;;5031328;28;20444;-51
2022/12/01 12:15:05;;;;;;;13.30;12.30;;;20.90;63.70;;;;;;5031282;28;20808;-50
2022/12/01 12:18:02;;;;;;;11.77;11.07;;;20.80;62.80;;;;;;5031161;28;20568;-50
2022/12/01 12:20:42;;;;;;;11.63;10.83;;;20.80;63.00;;;;;;5031194;28;20801;-53
2022/12/01 12:23:32;;;;;;;10.93;10.13;;;20.80;62.80;;;;;;5031356;28;20475;-55
2022/12/01 12:26:09;;;;;;;10.30;9.70;;;20.80;62.80;;;;;;5031379;28;20479;-56
2022/12/01 12:28:56;;;;;;;11.17;10.43;;;20.80;62.80;;;;;;5031228;28;20467;-55
2022/12/01 12:31:31;;;;;;;10.17;9.43;;;20.90;63.00;;;;;;5031261;28;20463;-53
2022/12/01 12:34:22;;;;;;;10.53;9.73;;;20.90;63.00;;;;;;5034252;28;20440;-54
2022/12/01 12:36:58;;;;;;;10.20;9.50;;;20.90;63.00;;;;;;5034946;28;20484;-55
2022/12/01 12:39:36;;;;;;;10.97;10.00;;;20.90;63.00;;;;;;5035050;28;20487;-54
2022/12/01 12:42:09;;;;;;;10.93;10.23;;;20.90;63.00;;;;;;5034842;28;20528;-51
2022/12/01 12:44:57;;;;;;;11.03;10.33;;;20.90;62.90;;;;;;5034927;28;20479;-51
2022/12/01 12:47:38;;;;;;;10.67;9.97;;;20.90;62.90;;;;;;5034634;28;20507;-52
2022/12/01 12:50:19;;;;;;;10.63;9.93;;;20.90;62.80;;;;;;5034451;28;20867;-51
2022/12/01 12:52:49;;;;;;;11.80;11.00;;;21.00;62.90;;;;;;5034787;28;20452;-55
2022/12/01 12:55:22;;;;;;;10.97;10.17;;;21.00;62.80;;;;;;5034669;28;20447;-54
2022/12/01 12:57:53;;;;;;;10.43;9.70;;;21.00;62.70;;;;;;5034415;28;20992;-51